sensor_id;sensor_type;location;lat;lon;timestamp;temperature;humidity
9403;DHT22;4741;49.834;10.740;2023-01-08T00:01:48;4.00;99.90
9403;DHT22;4741;49.834;10.740;2023-01-08T00:04:14;3.90;99.90
9403;DHT22;4741;49.834;10.740;2023-01-08T00:06:43;3.80;99.90
9403;DHT22;4741;49.834;10.740;2023-01-08T00:09:10;3.70;99.90
9403;DHT22;4741;49.834;10.740;2023-01-08T00:11:37;3.80;99.90
9403;DHT22;4741;49.834;10.740;2023-01-08T00:14:04;3.60;99.90
9403;DHT22;4741;49.834;10.740;2023-01-08T00:16:31;3.60;99.90
9403;DHT22;4741;49.834;10.740;2023-01-08T00:18:57;3.50;99.90
9403;DHT22;4741;49.834;10.740;2023-01-08T00:21:24;3.70;99.90
9403;DHT22;4741;49.834;10.740;2023-01-08T00:23:50;3.70;99.90
9403;DHT22;4741;49.834;10.740;2023-01-08T00:26:17;3.70;99.90
9403;DHT22;4741;49.834;10.740;2023-01-08T00:28:44;3.60;99.90
9403;DHT22;4741;49.834;10.740;2023-01-08T00:31:11;3.50;99.90
9403;DHT22;4741;49.834;10.740;2023-01-08T00:33:38;3.50;99.90
9403;DHT22;4741;49.834;10.740;2023-01-08T00:36:05;3.60;99.90
9403;DHT22;4741;49.834;10.740;2023-01-08T00:38:32;3.40;99.90
9403;DHT22;4741;49.834;10.740;2023-01-08T00:40:59;4.70;99.90
9403;DHT22;4741;49.834;10.740;2023-01-08T00:43:25;3.40;99.90
9403;DHT22;4741;49.834;10.740;2023-01-08T00:45:52;3.40;99.90
9403;DHT22;4741;49.834;10.740;2023-01-08T00:48:19;3.30;99.90
9403;DHT22;4741;49.834;10.740;2023-01-08T00:50:48;3.40;99.90
9403;DHT22;4741;49.834;10.740;2023-01-08T00:53:14;3.50;99.90
9403;DHT22;4741;49.834;10.740;2023-01-08T00:55:41;3.40;99.90
9403;DHT22;4741;49.834;10.740;2023-01-08T00:58:08;3.70;99.90
9403;DHT22;4741;49.834;10.740;2023-01-08T01:00:34;3.80;99.90
9403;DHT22;4741;49.834;10.740;2023-01-08T01:03:01;3.80;99.90
9403;DHT22;4741;49.834;10.740;2023-01-08T01:05:27;3.60;99.90
9403;DHT22;4741;49.834;10.740;2023-01-08T01:07:54;3.80;99.90
9403;DHT22;4741;49.834;10.740;2023-01-08T01:12:47;4.10;99.90
9403;DHT22;4741;49.834;10.740;2023-01-08T01:15:15;3.90;99.90
9403;DHT22;4741;49.834;10.740;2023-01-08T01:17:42;3.90;99.90
9403;DHT22;4741;49.834;10.740;2023-01-08T01:20:10;3.60;99.90
9403;DHT22;4741;49.834;10.740;2023-01-08T01:22:38;4.10;99.90
9403;DHT22;4741;49.834;10.740;2023-01-08T01:25:05;4.00;99.90
9403;DHT22;4741;49.834;10.740;2023-01-08T01:27:31;4.20;99.90
9403;DHT22;4741;49.834;10.740;2023-01-08T01:29:58;4.30;99.90
9403;DHT22;4741;49.834;10.740;2023-01-08T01:32:25;4.10;99.90
9403;DHT22;4741;49.834;10.740;2023-01-08T01:34:51;3.90;99.90
9403;DHT22;4741;49.834;10.740;2023-01-08T01:37:18;4.00;99.90
9403;DHT22;4741;49.834;10.740;2023-01-08T01:39:45;4.00;99.90
9403;DHT22;4741;49.834;10.740;2023-01-08T01:42:12;4.10;99.90
9403;DHT22;4741;49.834;10.740;2023-01-08T01:44:59;4.10;99.90
9403;DHT22;4741;49.834;10.740;2023-01-08T01:47:48;4.00;99.90
9403;DHT22;4741;49.834;10.740;2023-01-08T01:52:41;4.30;99.90
9403;DHT22;4741;49.834;10.740;2023-01-08T01:55:09;4.20;99.90
9403;DHT22;4741;49.834;10.740;2023-01-08T01:57:36;4.00;99.90
9403;DHT22;4741;49.834;10.740;2023-01-08T02:00:05;4.10;99.90
9403;DHT22;4741;49.834;10.740;2023-01-08T02:02:32;4.20;99.90
9403;DHT22;4741;49.834;10.740;2023-01-08T02:05:00;4.00;99.90
9403;DHT22;4741;49.834;10.740;2023-01-08T02:07:33;4.10;99.90
9403;DHT22;4741;49.834;10.740;2023-01-08T02:10:15;4.10;99.90
9403;DHT22;4741;49.834;10.740;2023-01-08T02:12:44;4.20;99.90
9403;DHT22;4741;49.834;10.740;2023-01-08T02:15:13;4.10;99.90
9403;DHT22;4741;49.834;10.740;2023-01-08T02:20:36;4.30;99.90
9403;DHT22;4741;49.834;10.740;2023-01-08T02:25:29;4.30;99.90
9403;DHT22;4741;49.834;10.740;2023-01-08T02:28:00;4.30;99.90
9403;DHT22;4741;49.834;10.740;2023-01-08T02:30:28;4.00;99.90
9403;DHT22;4741;49.834;10.740;2023-01-08T02:32:55;4.10;99.90
9403;DHT22;4741;49.834;10.740;2023-01-08T02:35:22;4.10;99.90
9403;DHT22;4741;49.834;10.740;2023-01-08T02:37:49;4.00;99.90
9403;DHT22;4741;49.834;10.740;2023-01-08T02:42:56;4.40;99.90
9403;DHT22;4741;49.834;10.740;2023-01-08T02:45:28;4.40;99.90
9403;DHT22;4741;49.834;10.740;2023-01-08T02:48:01;4.00;99.90
9403;DHT22;4741;49.834;10.740;2023-01-08T02:53:15;4.50;99.90
9403;DHT22;4741;49.834;10.740;2023-01-08T02:55:44;4.50;99.90
9403;DHT22;4741;49.834;10.740;2023-01-08T02:58:12;4.50;99.90
9403;DHT22;4741;49.834;10.740;2023-01-08T03:00:39;4.50;99.90
9403;DHT22;4741;49.834;10.740;2023-01-08T03:03:11;4.40;99.90
9403;DHT22;4741;49.834;10.740;2023-01-08T03:05:40;4.50;99.90
9403;DHT22;4741;49.834;10.740;2023-01-08T03:08:07;3.70;99.90
9403;DHT22;4741;49.834;10.740;2023-01-08T03:10:33;3.80;99.90
9403;DHT22;4741;49.834;10.740;2023-01-08T03:13:03;4.00;99.90
9403;DHT22;4741;49.834;10.740;2023-01-08T03:15:33;3.90;99.90
9403;DHT22;4741;49.834;10.740;2023-01-08T03:18:03;3.80;99.90
9403;DHT22;4741;49.834;10.740;2023-01-08T03:20:31;4.30;99.90
9403;DHT22;4741;49.834;10.740;2023-01-08T03:22:59;4.20;99.90
9403;DHT22;4741;49.834;10.740;2023-01-08T03:25:26;4.00;99.90
9403;DHT22;4741;49.834;10.740;2023-01-08T03:27:56;4.10;99.90
9403;DHT22;4741;49.834;10.740;2023-01-08T03:30:23;5.20;99.90
9403;DHT22;4741;49.834;10.740;2023-01-08T03:32:50;4.20;99.90
9403;DHT22;4741;49.834;10.740;2023-01-08T03:35:19;4.20;99.90
9403;DHT22;4741;49.834;10.740;2023-01-08T03:37:50;4.20;99.90
9403;DHT22;4741;49.834;10.740;2023-01-08T03:40:20;4.40;99.90
9403;DHT22;4741;49.834;10.740;2023-01-08T03:42:48;4.40;99.90
9403;DHT22;4741;49.834;10.740;2023-01-08T03:45:14;4.30;99.90
9403;DHT22;4741;49.834;10.740;2023-01-08T03:47:41;4.70;99.90
9403;DHT22;4741;49.834;10.740;2023-01-08T03:50:10;4.60;99.90
9403;DHT22;4741;49.834;10.740;2023-01-08T03:52:39;4.90;99.90
9403;DHT22;4741;49.834;10.740;2023-01-08T03:55:06;4.20;99.90
9403;DHT22;4741;49.834;10.740;2023-01-08T03:57:33;4.80;99.90
9403;DHT22;4741;49.834;10.740;2023-01-08T03:59:59;4.70;99.90
9403;DHT22;4741;49.834;10.740;2023-01-08T04:02:26;5.50;99.90
9403;DHT22;4741;49.834;10.740;2023-01-08T04:04:53;4.50;99.90
9403;DHT22;4741;49.834;10.740;2023-01-08T04:07:20;4.50;99.90
9403;DHT22;4741;49.834;10.740;2023-01-08T04:09:46;4.80;99.90
9403;DHT22;4741;49.834;10.740;2023-01-08T04:12:13;5.10;99.90
9403;DHT22;4741;49.834;10.740;2023-01-08T04:14:39;4.50;99.90
9403;DHT22;4741;49.834;10.740;2023-01-08T04:17:08;4.70;99.90
9403;DHT22;4741;49.834;10.740;2023-01-08T04:19:35;4.70;99.90
9403;DHT22;4741;49.834;10.740;2023-01-08T04:22:01;4.70;99.90
9403;DHT22;4741;49.834;10.740;2023-01-08T04:24:28;4.70;99.90
9403;DHT22;4741;49.834;10.740;2023-01-08T04:26:55;4.50;99.90
9403;DHT22;4741;49.834;10.740;2023-01-08T04:29:21;4.70;99.90
9403;DHT22;4741;49.834;10.740;2023-01-08T04:31:48;4.60;99.90
9403;DHT22;4741;49.834;10.740;2023-01-08T04:34:15;4.60;99.90
9403;DHT22;4741;49.834;10.740;2023-01-08T04:36:41;4.40;99.90
9403;DHT22;4741;49.834;10.740;2023-01-08T04:39:09;4.30;99.90
9403;DHT22;4741;49.834;10.740;2023-01-08T04:41:35;4.30;99.90
9403;DHT22;4741;49.834;10.740;2023-01-08T04:44:02;4.30;99.90
9403;DHT22;4741;49.834;10.740;2023-01-08T04:46:29;5.30;99.90
9403;DHT22;4741;49.834;10.740;2023-01-08T04:48:55;4.20;99.90
9403;DHT22;4741;49.834;10.740;2023-01-08T04:51:22;4.30;99.90
9403;DHT22;4741;49.834;10.740;2023-01-08T04:53:49;4.30;99.90
9403;DHT22;4741;49.834;10.740;2023-01-08T04:56:15;4.30;99.90
9403;DHT22;4741;49.834;10.740;2023-01-08T04:58:42;4.50;99.90
9403;DHT22;4741;49.834;10.740;2023-01-08T05:01:19;4.30;99.90
9403;DHT22;4741;49.834;10.740;2023-01-08T05:03:46;4.30;99.90
9403;DHT22;4741;49.834;10.740;2023-01-08T05:06:12;4.40;99.90
9403;DHT22;4741;49.834;10.740;2023-01-08T05:08:39;4.30;99.90
9403;DHT22;4741;49.834;10.740;2023-01-08T05:11:05;4.30;99.90
9403;DHT22;4741;49.834;10.740;2023-01-08T05:13:32;4.30;99.90
9403;DHT22;4741;49.834;10.740;2023-01-08T05:15:59;4.30;99.90
9403;DHT22;4741;49.834;10.740;2023-01-08T05:18:26;4.10;99.90
9403;DHT22;4741;49.834;10.740;2023-01-08T05:20:53;4.20;99.90
9403;DHT22;4741;49.834;10.740;2023-01-08T05:23:20;4.00;99.90
9403;DHT22;4741;49.834;10.740;2023-01-08T05:25:47;4.00;99.90
9403;DHT22;4741;49.834;10.740;2023-01-08T05:28:13;4.10;99.90
9403;DHT22;4741;49.834;10.740;2023-01-08T05:30:40;4.30;99.90
9403;DHT22;4741;49.834;10.740;2023-01-08T05:33:06;3.90;99.90
9403;DHT22;4741;49.834;10.740;2023-01-08T05:35:33;4.20;99.90
9403;DHT22;4741;49.834;10.740;2023-01-08T05:38:00;4.00;99.90
9403;DHT22;4741;49.834;10.740;2023-01-08T05:40:26;3.90;99.90
9403;DHT22;4741;49.834;10.740;2023-01-08T05:42:53;4.10;99.90
9403;DHT22;4741;49.834;10.740;2023-01-08T05:45:19;4.00;99.90
9403;DHT22;4741;49.834;10.740;2023-01-08T05:47:46;3.70;99.90
9403;DHT22;4741;49.834;10.740;2023-01-08T05:50:12;4.10;99.90
9403;DHT22;4741;49.834;10.740;2023-01-08T05:52:39;3.80;99.90
9403;DHT22;4741;49.834;10.740;2023-01-08T05:55:06;3.90;99.90
9403;DHT22;4741;49.834;10.740;2023-01-08T05:57:32;4.30;99.90
9403;DHT22;4741;49.834;10.740;2023-01-08T05:59:59;4.00;99.90
9403;DHT22;4741;49.834;10.740;2023-01-08T06:02:25;4.00;99.90
9403;DHT22;4741;49.834;10.740;2023-01-08T06:04:52;4.00;99.90
9403;DHT22;4741;49.834;10.740;2023-01-08T06:07:19;3.60;99.90
9403;DHT22;4741;49.834;10.740;2023-01-08T06:09:45;3.90;99.90
9403;DHT22;4741;49.834;10.740;2023-01-08T06:12:12;4.20;99.90
9403;DHT22;4741;49.834;10.740;2023-01-08T06:14:38;4.30;99.90
9403;DHT22;4741;49.834;10.740;2023-01-08T06:17:05;4.10;99.90
9403;DHT22;4741;49.834;10.740;2023-01-08T06:19:32;4.30;99.90
9403;DHT22;4741;49.834;10.740;2023-01-08T06:21:58;3.90;99.90
9403;DHT22;4741;49.834;10.740;2023-01-08T06:24:25;4.00;99.90
9403;DHT22;4741;49.834;10.740;2023-01-08T06:26:51;4.20;99.90
9403;DHT22;4741;49.834;10.740;2023-01-08T06:29:18;4.20;99.90
9403;DHT22;4741;49.834;10.740;2023-01-08T06:31:45;5.40;99.90
9403;DHT22;4741;49.834;10.740;2023-01-08T06:34:11;3.80;99.90
9403;DHT22;4741;49.834;10.740;2023-01-08T06:36:38;4.30;99.90
9403;DHT22;4741;49.834;10.740;2023-01-08T06:39:05;4.20;99.90
9403;DHT22;4741;49.834;10.740;2023-01-08T06:41:32;4.20;99.90
9403;DHT22;4741;49.834;10.740;2023-01-08T06:43:59;4.20;99.90
9403;DHT22;4741;49.834;10.740;2023-01-08T06:46:25;4.00;99.90
9403;DHT22;4741;49.834;10.740;2023-01-08T06:48:52;3.90;99.90
9403;DHT22;4741;49.834;10.740;2023-01-08T06:51:19;3.90;99.90
9403;DHT22;4741;49.834;10.740;2023-01-08T06:53:48;4.10;99.90
9403;DHT22;4741;49.834;10.740;2023-01-08T06:56:15;4.40;99.90
9403;DHT22;4741;49.834;10.740;2023-01-08T06:58:41;4.40;99.90
9403;DHT22;4741;49.834;10.740;2023-01-08T07:01:10;4.50;99.90
9403;DHT22;4741;49.834;10.740;2023-01-08T07:03:38;4.50;99.90
9403;DHT22;4741;49.834;10.740;2023-01-08T07:06:05;4.60;99.90
9403;DHT22;4741;49.834;10.740;2023-01-08T07:08:32;4.60;99.90
9403;DHT22;4741;49.834;10.740;2023-01-08T07:11:02;4.50;99.90
9403;DHT22;4741;49.834;10.740;2023-01-08T07:13:31;4.60;99.90
9403;DHT22;4741;49.834;10.740;2023-01-08T07:15:57;4.60;99.90
9403;DHT22;4741;49.834;10.740;2023-01-08T07:18:24;4.70;99.90
9403;DHT22;4741;49.834;10.740;2023-01-08T07:20:51;4.60;99.90
9403;DHT22;4741;49.834;10.740;2023-01-08T07:23:17;4.80;99.90
9403;DHT22;4741;49.834;10.740;2023-01-08T07:25:44;4.40;99.90
9403;DHT22;4741;49.834;10.740;2023-01-08T07:28:10;4.40;99.90
9403;DHT22;4741;49.834;10.740;2023-01-08T07:30:38;4.70;99.90
9403;DHT22;4741;49.834;10.740;2023-01-08T07:33:04;4.80;99.90
9403;DHT22;4741;49.834;10.740;2023-01-08T07:35:31;4.60;99.90
9403;DHT22;4741;49.834;10.740;2023-01-08T07:37:57;4.70;99.90
9403;DHT22;4741;49.834;10.740;2023-01-08T07:40:24;4.70;99.90
9403;DHT22;4741;49.834;10.740;2023-01-08T07:43:00;4.60;99.90
9403;DHT22;4741;49.834;10.740;2023-01-08T07:45:28;4.60;99.90
9403;DHT22;4741;49.834;10.740;2023-01-08T07:47:56;4.60;99.90
9403;DHT22;4741;49.834;10.740;2023-01-08T07:50:23;4.70;99.90
9403;DHT22;4741;49.834;10.740;2023-01-08T07:52:50;4.70;99.90
9403;DHT22;4741;49.834;10.740;2023-01-08T07:55:17;4.70;99.90
9403;DHT22;4741;49.834;10.740;2023-01-08T07:57:43;4.70;99.90
9403;DHT22;4741;49.834;10.740;2023-01-08T08:00:10;4.50;99.90
9403;DHT22;4741;49.834;10.740;2023-01-08T08:02:36;4.70;99.90
9403;DHT22;4741;49.834;10.740;2023-01-08T08:05:03;4.60;99.90
9403;DHT22;4741;49.834;10.740;2023-01-08T08:07:30;4.70;99.90
9403;DHT22;4741;49.834;10.740;2023-01-08T08:09:57;4.60;99.90
9403;DHT22;4741;49.834;10.740;2023-01-08T08:12:23;4.60;99.90
9403;DHT22;4741;49.834;10.740;2023-01-08T08:14:50;4.50;99.90
9403;DHT22;4741;49.834;10.740;2023-01-08T08:17:16;4.40;99.90
9403;DHT22;4741;49.834;10.740;2023-01-08T08:19:43;3.90;99.90
9403;DHT22;4741;49.834;10.740;2023-01-08T08:22:14;4.50;99.90
9403;DHT22;4741;49.834;10.740;2023-01-08T08:24:40;4.70;99.90
9403;DHT22;4741;49.834;10.740;2023-01-08T08:27:07;4.40;99.90
9403;DHT22;4741;49.834;10.740;2023-01-08T08:29:34;4.40;99.90
9403;DHT22;4741;49.834;10.740;2023-01-08T08:32:00;5.40;99.90
9403;DHT22;4741;49.834;10.740;2023-01-08T08:34:27;4.40;99.90
9403;DHT22;4741;49.834;10.740;2023-01-08T08:36:53;4.60;99.90
9403;DHT22;4741;49.834;10.740;2023-01-08T08:39:20;4.50;99.90
9403;DHT22;4741;49.834;10.740;2023-01-08T08:41:47;4.80;99.90
9403;DHT22;4741;49.834;10.740;2023-01-08T08:44:13;4.20;99.90
9403;DHT22;4741;49.834;10.740;2023-01-08T08:46:40;4.10;99.90
9403;DHT22;4741;49.834;10.740;2023-01-08T08:49:07;4.60;99.90
9403;DHT22;4741;49.834;10.740;2023-01-08T08:51:33;4.80;99.90
9403;DHT22;4741;49.834;10.740;2023-01-08T08:54:00;4.40;99.90
9403;DHT22;4741;49.834;10.740;2023-01-08T08:56:27;4.70;99.90
9403;DHT22;4741;49.834;10.740;2023-01-08T08:58:55;4.20;99.90
9403;DHT22;4741;49.834;10.740;2023-01-08T09:01:23;4.60;99.90
9403;DHT22;4741;49.834;10.740;2023-01-08T09:03:50;4.60;99.90
9403;DHT22;4741;49.834;10.740;2023-01-08T09:06:16;4.40;99.90
9403;DHT22;4741;49.834;10.740;2023-01-08T09:08:43;4.70;99.90
9403;DHT22;4741;49.834;10.740;2023-01-08T09:11:10;4.40;99.90
9403;DHT22;4741;49.834;10.740;2023-01-08T09:13:39;4.70;99.90
9403;DHT22;4741;49.834;10.740;2023-01-08T09:21:04;5.40;99.90
9403;DHT22;4741;49.834;10.740;2023-01-08T09:23:31;5.50;99.90
9403;DHT22;4741;49.834;10.740;2023-01-08T09:25:58;4.80;99.90
9403;DHT22;4741;49.834;10.740;2023-01-08T09:28:25;5.30;99.90
9403;DHT22;4741;49.834;10.740;2023-01-08T09:30:52;7.30;99.90
9403;DHT22;4741;49.834;10.740;2023-01-08T09:45:36;5.60;99.90
9403;DHT22;4741;49.834;10.740;2023-01-08T09:48:05;5.30;99.90
9403;DHT22;4741;49.834;10.740;2023-01-08T09:50:32;5.80;99.90
9403;DHT22;4741;49.834;10.740;2023-01-08T09:52:59;6.30;99.90
9403;DHT22;4741;49.834;10.740;2023-01-08T09:55:27;5.40;99.90
9403;DHT22;4741;49.834;10.740;2023-01-08T09:57:55;5.40;99.90
9403;DHT22;4741;49.834;10.740;2023-01-08T10:00:26;4.90;99.90
9403;DHT22;4741;49.834;10.740;2023-01-08T10:02:53;5.80;99.90
9403;DHT22;4741;49.834;10.740;2023-01-08T10:05:21;5.00;99.90
9403;DHT22;4741;49.834;10.740;2023-01-08T10:12:41;5.60;99.90
9403;DHT22;4741;49.834;10.740;2023-01-08T10:27:23;7.40;99.90
9403;DHT22;4741;49.834;10.740;2023-01-08T10:29:50;5.90;99.90
9403;DHT22;4741;49.834;10.740;2023-01-08T10:32:18;5.40;99.90
9403;DHT22;4741;49.834;10.740;2023-01-08T10:34:46;7.50;99.90
9403;DHT22;4741;49.834;10.740;2023-01-08T10:39:44;6.00;99.90
9403;DHT22;4741;49.834;10.740;2023-01-08T10:42:11;5.50;99.90
9403;DHT22;4741;49.834;10.740;2023-01-08T10:44:38;5.80;99.90
9403;DHT22;4741;49.834;10.740;2023-01-08T10:47:04;5.30;99.90
9403;DHT22;4741;49.834;10.740;2023-01-08T10:49:36;6.00;99.90
9403;DHT22;4741;49.834;10.740;2023-01-08T10:52:04;6.20;99.90
9403;DHT22;4741;49.834;10.740;2023-01-08T10:54:33;6.20;99.90
9403;DHT22;4741;49.834;10.740;2023-01-08T10:57:00;6.00;99.90
9403;DHT22;4741;49.834;10.740;2023-01-08T10:59:28;6.10;99.90
9403;DHT22;4741;49.834;10.740;2023-01-08T11:01:55;7.10;99.90
9403;DHT22;4741;49.834;10.740;2023-01-08T11:04:32;6.10;99.90
9403;DHT22;4741;49.834;10.740;2023-01-08T11:07:01;6.40;99.90
9403;DHT22;4741;49.834;10.740;2023-01-08T11:09:32;6.30;99.90
9403;DHT22;4741;49.834;10.740;2023-01-08T11:11:59;6.40;99.90
9403;DHT22;4741;49.834;10.740;2023-01-08T11:14:30;6.10;99.90
9403;DHT22;4741;49.834;10.740;2023-01-08T11:17:01;6.40;99.90
9403;DHT22;4741;49.834;10.740;2023-01-08T11:19:34;6.00;99.90
9403;DHT22;4741;49.834;10.740;2023-01-08T11:22:02;6.10;99.90
9403;DHT22;4741;49.834;10.740;2023-01-08T11:24:29;6.20;99.90
9403;DHT22;4741;49.834;10.740;2023-01-08T11:27:00;6.20;99.90
9403;DHT22;4741;49.834;10.740;2023-01-08T11:29:40;6.20;99.90
9403;DHT22;4741;49.834;10.740;2023-01-08T11:37:24;6.30;99.90
9403;DHT22;4741;49.834;10.740;2023-01-08T11:39:51;6.20;99.90
9403;DHT22;4741;49.834;10.740;2023-01-08T11:49:48;6.40;99.90
9403;DHT22;4741;49.834;10.740;2023-01-08T11:55:23;6.30;99.90
9403;DHT22;4741;49.834;10.740;2023-01-08T11:57:58;6.30;99.90
9403;DHT22;4741;49.834;10.740;2023-01-08T12:02:56;6.30;99.90
9403;DHT22;4741;49.834;10.740;2023-01-08T12:05:24;6.40;99.90
9403;DHT22;4741;49.834;10.740;2023-01-08T12:07:59;6.40;99.90
9403;DHT22;4741;49.834;10.740;2023-01-08T12:10:39;6.40;99.90
9403;DHT22;4741;49.834;10.740;2023-01-08T12:23:33;6.70;99.90
9403;DHT22;4741;49.834;10.740;2023-01-08T12:29:01;6.70;99.90
9403;DHT22;4741;49.834;10.740;2023-01-08T12:31:46;6.60;99.90
9403;DHT22;4741;49.834;10.740;2023-01-08T12:34:40;6.60;99.90
9403;DHT22;4741;49.834;10.740;2023-01-08T12:40:02;6.70;99.90
9403;DHT22;4741;49.834;10.740;2023-01-08T12:42:33;6.50;99.90
9403;DHT22;4741;49.834;10.740;2023-01-08T12:45:04;6.50;99.90
9403;DHT22;4741;49.834;10.740;2023-01-08T12:47:34;6.70;99.90
9403;DHT22;4741;49.834;10.740;2023-01-08T12:50:08;6.30;99.90
9403;DHT22;4741;49.834;10.740;2023-01-08T12:52:47;6.60;99.90
9403;DHT22;4741;49.834;10.740;2023-01-08T12:58:07;6.70;99.90
9403;DHT22;4741;49.834;10.740;2023-01-08T13:00:40;6.70;99.90
9403;DHT22;4741;49.834;10.740;2023-01-08T13:03:10;6.80;99.90
9403;DHT22;4741;49.834;10.740;2023-01-08T13:05:40;6.20;99.90
9403;DHT22;4741;49.834;10.740;2023-01-08T13:08:21;6.60;99.90
9403;DHT22;4741;49.834;10.740;2023-01-08T13:18:17;7.10;99.90
9403;DHT22;4741;49.834;10.740;2023-01-08T13:20:54;7.10;99.90
9403;DHT22;4741;49.834;10.740;2023-01-08T13:23:40;7.10;99.90
9403;DHT22;4741;49.834;10.740;2023-01-08T13:26:06;7.10;99.90
9403;DHT22;4741;49.834;10.740;2023-01-08T13:31:23;7.10;99.90
9403;DHT22;4741;49.834;10.740;2023-01-08T13:33:52;7.10;99.90
9403;DHT22;4741;49.834;10.740;2023-01-08T13:41:35;7.20;99.90
9403;DHT22;4741;49.834;10.740;2023-01-08T13:44:03;7.50;99.90
9403;DHT22;4741;49.834;10.740;2023-01-08T13:46:32;7.30;99.90
9403;DHT22;4741;49.834;10.740;2023-01-08T13:49:01;7.30;99.90
9403;DHT22;4741;49.834;10.740;2023-01-08T13:53:55;7.40;99.90
9403;DHT22;4741;49.834;10.740;2023-01-08T13:56:21;7.30;99.90
9403;DHT22;4741;49.834;10.740;2023-01-08T13:58:51;7.40;99.90
9403;DHT22;4741;49.834;10.740;2023-01-08T14:01:20;7.50;99.90
9403;DHT22;4741;49.834;10.740;2023-01-08T14:03:47;7.50;99.90
9403;DHT22;4741;49.834;10.740;2023-01-08T14:06:48;7.40;99.90
9403;DHT22;4741;49.834;10.740;2023-01-08T14:09:12;7.60;99.90
9403;DHT22;4741;49.834;10.740;2023-01-08T14:11:44;7.40;99.90
9403;DHT22;4741;49.834;10.740;2023-01-08T14:14:12;8.30;99.90
9403;DHT22;4741;49.834;10.740;2023-01-08T14:16:39;7.30;99.90
9403;DHT22;4741;49.834;10.740;2023-01-08T14:19:10;7.40;99.90
9403;DHT22;4741;49.834;10.740;2023-01-08T14:21:39;7.30;99.90
9403;DHT22;4741;49.834;10.740;2023-01-08T14:24:06;7.30;99.90
9403;DHT22;4741;49.834;10.740;2023-01-08T14:26:34;7.50;99.90
9403;DHT22;4741;49.834;10.740;2023-01-08T14:29:02;7.50;99.90
9403;DHT22;4741;49.834;10.740;2023-01-08T14:31:29;7.40;99.90
9403;DHT22;4741;49.834;10.740;2023-01-08T14:33:57;7.40;99.90
9403;DHT22;4741;49.834;10.740;2023-01-08T14:36:24;7.20;99.90
9403;DHT22;4741;49.834;10.740;2023-01-08T14:38:51;7.40;99.90
9403;DHT22;4741;49.834;10.740;2023-01-08T14:44:13;7.20;99.90
9403;DHT22;4741;49.834;10.740;2023-01-08T14:46:44;7.20;99.90
9403;DHT22;4741;49.834;10.740;2023-01-08T14:49:24;7.20;99.90
9403;DHT22;4741;49.834;10.740;2023-01-08T14:51:52;7.20;99.90
9403;DHT22;4741;49.834;10.740;2023-01-08T14:54:20;7.20;99.90
9403;DHT22;4741;49.834;10.740;2023-01-08T14:56:49;7.10;99.90
9403;DHT22;4741;49.834;10.740;2023-01-08T14:59:18;7.10;99.90
9403;DHT22;4741;49.834;10.740;2023-01-08T15:01:53;7.10;99.90
9403;DHT22;4741;49.834;10.740;2023-01-08T15:04:21;7.10;99.90
9403;DHT22;4741;49.834;10.740;2023-01-08T15:06:48;7.10;99.90
9403;DHT22;4741;49.834;10.740;2023-01-08T15:09:22;7.10;99.90
9403;DHT22;4741;49.834;10.740;2023-01-08T15:11:54;7.00;99.90
9403;DHT22;4741;49.834;10.740;2023-01-08T15:14:22;7.00;99.90
9403;DHT22;4741;49.834;10.740;2023-01-08T15:16:50;6.90;99.90
9403;DHT22;4741;49.834;10.740;2023-01-08T15:19:23;6.90;99.90
9403;DHT22;4741;49.834;10.740;2023-01-08T15:21:51;6.90;99.90
9403;DHT22;4741;49.834;10.740;2023-01-08T15:24:27;6.80;99.90
9403;DHT22;4741;49.834;10.740;2023-01-08T15:26:54;6.80;99.90
9403;DHT22;4741;49.834;10.740;2023-01-08T15:29:22;6.70;99.90
9403;DHT22;4741;49.834;10.740;2023-01-08T15:31:49;6.70;99.90
9403;DHT22;4741;49.834;10.740;2023-01-08T15:34:17;6.70;99.90
9403;DHT22;4741;49.834;10.740;2023-01-08T15:36:44;6.70;99.90
9403;DHT22;4741;49.834;10.740;2023-01-08T15:39:11;6.50;99.90
9403;DHT22;4741;49.834;10.740;2023-01-08T15:41:38;6.50;99.90
9403;DHT22;4741;49.834;10.740;2023-01-08T15:44:40;6.50;99.90
9403;DHT22;4741;49.834;10.740;2023-01-08T15:47:07;6.60;99.90
9403;DHT22;4741;49.834;10.740;2023-01-08T15:49:33;6.60;99.90
9403;DHT22;4741;49.834;10.740;2023-01-08T15:52:00;6.60;99.90
9403;DHT22;4741;49.834;10.740;2023-01-08T15:54:27;6.60;99.90
9403;DHT22;4741;49.834;10.740;2023-01-08T15:56:53;6.50;99.90
9403;DHT22;4741;49.834;10.740;2023-01-08T15:59:20;6.60;99.90
9403;DHT22;4741;49.834;10.740;2023-01-08T16:01:46;6.40;99.90
9403;DHT22;4741;49.834;10.740;2023-01-08T16:04:13;6.50;99.90
9403;DHT22;4741;49.834;10.740;2023-01-08T16:06:40;6.50;99.90
9403;DHT22;4741;49.834;10.740;2023-01-08T16:09:07;6.30;99.90
9403;DHT22;4741;49.834;10.740;2023-01-08T16:11:34;6.40;99.90
9403;DHT22;4741;49.834;10.740;2023-01-08T16:14:00;6.50;99.90
9403;DHT22;4741;49.834;10.740;2023-01-08T16:16:27;6.50;99.90
9403;DHT22;4741;49.834;10.740;2023-01-08T16:18:54;6.30;99.90
9403;DHT22;4741;49.834;10.740;2023-01-08T16:21:20;6.30;99.90
9403;DHT22;4741;49.834;10.740;2023-01-08T16:23:47;6.30;99.90
9403;DHT22;4741;49.834;10.740;2023-01-08T16:26:14;6.40;99.90
9403;DHT22;4741;49.834;10.740;2023-01-08T16:28:41;6.40;99.90
9403;DHT22;4741;49.834;10.740;2023-01-08T16:31:08;6.40;99.90
9403;DHT22;4741;49.834;10.740;2023-01-08T16:33:35;6.40;99.90
9403;DHT22;4741;49.834;10.740;2023-01-08T16:36:03;6.40;99.90
9403;DHT22;4741;49.834;10.740;2023-01-08T16:38:30;6.40;99.90
9403;DHT22;4741;49.834;10.740;2023-01-08T16:40:59;6.20;99.90
9403;DHT22;4741;49.834;10.740;2023-01-08T16:43:26;6.40;99.90
9403;DHT22;4741;49.834;10.740;2023-01-08T16:45:53;6.30;99.90
9403;DHT22;4741;49.834;10.740;2023-01-08T16:48:21;6.30;99.90
9403;DHT22;4741;49.834;10.740;2023-01-08T16:50:47;6.20;99.90
9403;DHT22;4741;49.834;10.740;2023-01-08T16:53:14;7.10;99.90
9403;DHT22;4741;49.834;10.740;2023-01-08T16:55:42;6.30;99.90
9403;DHT22;4741;49.834;10.740;2023-01-08T16:58:09;6.30;99.90
9403;DHT22;4741;49.834;10.740;2023-01-08T17:00:36;6.30;99.90
9403;DHT22;4741;49.834;10.740;2023-01-08T17:03:03;6.20;99.90
9403;DHT22;4741;49.834;10.740;2023-01-08T17:05:31;6.10;99.90
9403;DHT22;4741;49.834;10.740;2023-01-08T17:07:57;6.20;99.90
9403;DHT22;4741;49.834;10.740;2023-01-08T17:10:24;6.40;99.90
9403;DHT22;4741;49.834;10.740;2023-01-08T17:12:51;6.40;99.90
9403;DHT22;4741;49.834;10.740;2023-01-08T17:15:18;6.40;99.90
9403;DHT22;4741;49.834;10.740;2023-01-08T17:17:44;6.30;99.90
9403;DHT22;4741;49.834;10.740;2023-01-08T17:20:11;6.40;99.90
9403;DHT22;4741;49.834;10.740;2023-01-08T17:22:38;6.40;99.90
9403;DHT22;4741;49.834;10.740;2023-01-08T17:25:04;6.40;99.90
9403;DHT22;4741;49.834;10.740;2023-01-08T17:27:33;6.30;99.90
9403;DHT22;4741;49.834;10.740;2023-01-08T17:30:00;6.10;99.90
9403;DHT22;4741;49.834;10.740;2023-01-08T17:32:27;6.30;99.90
9403;DHT22;4741;49.834;10.740;2023-01-08T17:34:54;6.30;99.90
9403;DHT22;4741;49.834;10.740;2023-01-08T17:37:21;6.30;99.90
9403;DHT22;4741;49.834;10.740;2023-01-08T17:39:48;6.20;99.90
9403;DHT22;4741;49.834;10.740;2023-01-08T17:42:14;6.20;99.90
9403;DHT22;4741;49.834;10.740;2023-01-08T17:44:50;6.20;99.90
9403;DHT22;4741;49.834;10.740;2023-01-08T17:47:17;6.00;99.90
9403;DHT22;4741;49.834;10.740;2023-01-08T17:49:50;5.80;99.90
9403;DHT22;4741;49.834;10.740;2023-01-08T17:52:17;6.20;99.90
9403;DHT22;4741;49.834;10.740;2023-01-08T17:54:46;5.90;99.90
9403;DHT22;4741;49.834;10.740;2023-01-08T17:57:13;6.20;99.90
9403;DHT22;4741;49.834;10.740;2023-01-08T17:59:40;6.20;99.90